sensor_id;sensor_type;location;lat;lon;timestamp;pressure;altitude;pressure_sealevel;temperature;humidity
5877;BME280;2964;42.144;24.730;2023-02-16T00:01:00;142396.00;;;3.12;83.71
5877;BME280;2964;42.144;24.730;2023-02-16T00:03:27;142296.13;;;2.71;84.42
5877;BME280;2964;42.144;24.730;2023-02-16T00:05:54;142262.47;;;2.57;85.98
5877;BME280;2964;42.144;24.730;2023-02-16T00:08:21;142221.31;;;2.40;87.12
5877;BME280;2964;42.144;24.730;2023-02-16T00:10:48;142328.63;;;2.84;86.05
5877;BME280;2964;42.144;24.730;2023-02-16T00:13:29;142444.69;;;3.32;82.29
5877;BME280;2964;42.144;24.730;2023-02-16T00:16:16;142430.97;;;3.26;82.71
5877;BME280;2964;42.144;24.730;2023-02-16T00:18:43;142329.84;;;2.85;82.25
5877;BME280;2964;42.144;24.730;2023-02-16T00:21:10;142396.00;;;3.12;82.25
5877;BME280;2964;42.144;24.730;2023-02-16T00:23:37;142368.56;;;3.01;82.41
5877;BME280;2964;42.144;24.730;2023-02-16T00:26:05;142366.03;;;3.00;83.20
5877;BME280;2964;42.144;24.730;2023-02-16T00:28:36;142351.06;;;2.94;83.81
5877;BME280;2964;42.144;24.730;2023-02-16T00:31:03;142236.25;;;2.46;86.05
5877;BME280;2964;42.144;24.730;2023-02-16T00:33:31;142195.09;;;2.29;87.61
5877;BME280;2964;42.144;24.730;2023-02-16T00:35:58;142181.38;;;2.24;87.23
5877;BME280;2964;42.144;24.730;2023-02-16T00:38:25;142178.88;;;2.23;87.46
5877;BME280;2964;42.144;24.730;2023-02-16T00:40:51;142236.25;;;2.46;87.31
5877;BME280;2964;42.144;24.730;2023-02-16T00:43:23;142213.81;;;2.37;87.40
5877;BME280;2964;42.144;24.730;2023-02-16T00:45:51;142274.97;;;2.62;87.01
5877;BME280;2964;42.144;24.730;2023-02-16T00:48:18;142286.16;;;2.67;85.93
5877;BME280;2964;42.144;24.730;2023-02-16T00:50:46;142311.13;;;2.77;85.39
5877;BME280;2964;42.144;24.730;2023-02-16T00:53:13;142302.41;;;2.74;85.83
5877;BME280;2964;42.144;24.730;2023-02-16T00:55:41;142221.31;;;2.40;87.12
5877;BME280;2964;42.144;24.730;2023-02-16T00:58:15;142187.59;;;2.26;87.48
5877;BME280;2964;42.144;24.730;2023-02-16T01:00:48;142167.66;;;2.18;87.60
5877;BME280;2964;42.144;24.730;2023-02-16T01:03:18;142140.25;;;2.07;88.43
5877;BME280;2964;42.144;24.730;2023-02-16T01:05:47;142140.25;;;2.07;88.89
5877;BME280;2964;42.144;24.730;2023-02-16T01:08:16;142160.16;;;2.15;88.28
5877;BME280;2964;42.144;24.730;2023-02-16T01:11:01;142188.88;;;2.27;87.24
5877;BME280;2964;42.144;24.730;2023-02-16T01:13:41;142136.50;;;2.05;87.74
5877;BME280;2964;42.144;24.730;2023-02-16T01:16:14;142203.84;;;2.33;86.43
5877;BME280;2964;42.144;24.730;2023-02-16T01:18:42;142143.94;;;2.08;86.53
5877;BME280;2964;42.144;24.730;2023-02-16T01:21:10;142178.88;;;2.23;85.64
5877;BME280;2964;42.144;24.730;2023-02-16T01:23:37;142094.06;;;1.88;87.68
5877;BME280;2964;42.144;24.730;2023-02-16T01:26:05;142220.03;;;2.40;86.15
5877;BME280;2964;42.144;24.730;2023-02-16T01:28:33;142087.84;;;1.85;87.67
5877;BME280;2964;42.144;24.730;2023-02-16T01:31:01;142090.38;;;1.86;88.58
5877;BME280;2964;42.144;24.730;2023-02-16T01:33:28;142203.84;;;2.33;86.55
5877;BME280;2964;42.144;24.730;2023-02-16T01:35:55;142177.63;;;2.22;86.38
5877;BME280;2964;42.144;24.730;2023-02-16T01:38:25;142141.47;;;2.07;86.03
5877;BME280;2964;42.144;24.730;2023-02-16T01:40:59;142086.63;;;1.85;87.71
5877;BME280;2964;42.144;24.730;2023-02-16T01:43:32;142067.94;;;1.77;87.90
5877;BME280;2964;42.144;24.730;2023-02-16T01:46:04;142020.53;;;1.58;89.59
5877;BME280;2964;42.144;24.730;2023-02-16T01:48:34;142109.06;;;1.94;88.15
5877;BME280;2964;42.144;24.730;2023-02-16T01:51:04;142178.88;;;2.23;85.93
5877;BME280;2964;42.144;24.730;2023-02-16T01:53:37;142180.16;;;2.23;85.33
5877;BME280;2964;42.144;24.730;2023-02-16T01:56:12;142131.50;;;2.03;85.70
5877;BME280;2964;42.144;24.730;2023-02-16T01:58:45;142133.97;;;2.04;85.92
5877;BME280;2964;42.144;24.730;2023-02-16T02:01:37;142180.16;;;2.23;84.75
5877;BME280;2964;42.144;24.730;2023-02-16T02:04:11;142133.97;;;2.04;85.35
5877;BME280;2964;42.144;24.730;2023-02-16T02:06:56;142069.16;;;1.78;87.16
5877;BME280;2964;42.144;24.730;2023-02-16T02:09:29;142124.00;;;2.00;86.48
5877;BME280;2964;42.144;24.730;2023-02-16T02:12:08;142047.94;;;1.69;87.27
5877;BME280;2964;42.144;24.730;2023-02-16T02:14:37;141924.59;;;1.18;89.36
5877;BME280;2964;42.144;24.730;2023-02-16T02:17:07;141837.34;;;0.82;91.55
5877;BME280;2964;42.144;24.730;2023-02-16T02:19:42;141876.00;;;0.98;91.33
5877;BME280;2964;42.144;24.730;2023-02-16T02:22:25;141841.09;;;0.84;93.15
5877;BME280;2964;42.144;24.730;2023-02-16T02:25:39;141809.94;;;0.71;94.16
5877;BME280;2964;42.144;24.730;2023-02-16T02:28:16;141856.03;;;0.90;93.94
5877;BME280;2964;42.144;24.730;2023-02-16T02:30:46;141905.84;;;1.10;93.54
5877;BME280;2964;42.144;24.730;2023-02-16T02:33:25;141876.00;;;0.98;93.33
5877;BME280;2964;42.144;24.730;2023-02-16T02:36:06;141848.59;;;0.87;92.68
5877;BME280;2964;42.144;24.730;2023-02-16T02:38:39;141862.28;;;0.92;92.90
5877;BME280;2964;42.144;24.730;2023-02-16T02:41:17;141824.88;;;0.77;93.65
5877;BME280;2964;42.144;24.730;2023-02-16T02:43:51;141811.19;;;0.71;93.81
5877;BME280;2964;42.144;24.730;2023-02-16T02:46:24;141849.81;;;0.87;92.82
5877;BME280;2964;42.144;24.730;2023-02-16T02:48:51;141768.84;;;0.54;93.64
5877;BME280;2964;42.144;24.730;2023-02-16T02:51:18;141892.16;;;1.05;92.86
5877;BME280;2964;42.144;24.730;2023-02-16T02:53:57;141887.19;;;1.03;91.61
5877;BME280;2964;42.144;24.730;2023-02-16T02:56:40;141811.19;;;0.71;93.56
5877;BME280;2964;42.144;24.730;2023-02-16T02:59:28;141720.28;;;0.34;95.33
5877;BME280;2964;42.144;24.730;2023-02-16T03:02:14;141699.09;;;0.25;96.00
5877;BME280;2964;42.144;24.730;2023-02-16T03:04:43;141690.38;;;0.22;96.57
5877;BME280;2964;42.144;24.730;2023-02-16T03:07:13;141785.03;;;0.61;94.96
5877;BME280;2964;42.144;24.730;2023-02-16T03:09:40;141702.84;;;0.27;95.76
5877;BME280;2964;42.144;24.730;2023-02-16T03:12:07;141691.63;;;0.22;96.02
5877;BME280;2964;42.144;24.730;2023-02-16T03:14:56;141755.16;;;0.48;96.66
5877;BME280;2964;42.144;24.730;2023-02-16T03:17:30;141664.22;;;0.11;96.07
5877;BME280;2964;42.144;24.730;2023-02-16T03:20:15;141671.72;;;0.14;96.66
5877;BME280;2964;42.144;24.730;2023-02-16T03:23:01;141650.53;;;0.05;96.22
5877;BME280;2964;42.144;24.730;2023-02-16T03:25:46;141765.13;;;0.52;94.90
5877;BME280;2964;42.144;24.730;2023-02-16T03:28:32;141681.66;;;0.18;94.40
5877;BME280;2964;42.144;24.730;2023-02-16T03:31:22;141669.22;;;0.13;96.59
5877;BME280;2964;42.144;24.730;2023-02-16T03:33:51;141809.94;;;0.71;94.22
5877;BME280;2964;42.144;24.730;2023-02-16T03:36:19;141919.56;;;1.16;92.68
5877;BME280;2964;42.144;24.730;2023-02-16T03:38:45;141752.66;;;0.47;95.14
5877;BME280;2964;42.144;24.730;2023-02-16T03:41:12;141800.00;;;0.67;94.37
5877;BME280;2964;42.144;24.730;2023-02-16T03:43:39;141727.78;;;0.37;95.20
5877;BME280;2964;42.144;24.730;2023-02-16T03:46:05;141803.75;;;0.68;94.94
5877;BME280;2964;42.144;24.730;2023-02-16T03:48:33;141691.63;;;0.22;95.52
5877;BME280;2964;42.144;24.730;2023-02-16T03:51:00;141760.13;;;0.50;94.81
5877;BME280;2964;42.144;24.730;2023-02-16T03:53:27;141682.94;;;0.18;96.02
5877;BME280;2964;42.144;24.730;2023-02-16T03:55:53;141783.78;;;0.60;95.52
5877;BME280;2964;42.144;24.730;2023-02-16T03:58:22;141745.16;;;0.44;96.39
5877;BME280;2964;42.144;24.730;2023-02-16T04:00:49;141745.16;;;0.44;94.58
5877;BME280;2964;42.144;24.730;2023-02-16T04:03:16;141690.38;;;0.22;95.74
5877;BME280;2964;42.144;24.730;2023-02-16T04:05:45;141672.97;;;0.14;96.87
5877;BME280;2964;42.144;24.730;2023-02-16T04:08:11;141645.56;;;0.03;97.72
5877;BME280;2964;42.144;24.730;2023-02-16T04:10:38;141674.22;;;0.15;97.40
5877;BME280;2964;42.144;24.730;2023-02-16T04:13:05;141625.69;;;-0.05;98.31
5877;BME280;2964;42.144;24.730;2023-02-16T04:15:31;141570.88;;;-0.28;98.74
5877;BME280;2964;42.144;24.730;2023-02-16T04:17:58;141594.56;;;-0.18;99.38
5877;BME280;2964;42.144;24.730;2023-02-16T04:20:27;141580.88;;;-0.24;100.00
5877;BME280;2964;42.144;24.730;2023-02-16T04:22:55;141568.41;;;-0.29;100.00
5877;BME280;2964;42.144;24.730;2023-02-16T04:25:23;141595.78;;;-0.17;100.00
5877;BME280;2964;42.144;24.730;2023-02-16T04:27:50;141605.72;;;-0.13;99.96
5877;BME280;2964;42.144;24.730;2023-02-16T04:30:18;141607.00;;;-0.13;99.63
5877;BME280;2964;42.144;24.730;2023-02-16T04:32:45;141580.88;;;-0.24;100.00
5877;BME280;2964;42.144;24.730;2023-02-16T04:35:14;141562.22;;;-0.31;100.00
5877;BME280;2964;42.144;24.730;2023-02-16T04:37:41;141608.25;;;-0.12;99.52
5877;BME280;2964;42.144;24.730;2023-02-16T04:40:14;141615.69;;;-0.09;99.21
5877;BME280;2964;42.144;24.730;2023-02-16T04:42:41;141695.38;;;0.24;98.49
5877;BME280;2964;42.144;24.730;2023-02-16T04:45:09;141677.94;;;0.16;97.82
5877;BME280;2964;42.144;24.730;2023-02-16T04:47:36;141653.06;;;0.06;98.85
5877;BME280;2964;42.144;24.730;2023-02-16T04:50:06;141615.69;;;-0.09;98.42
5877;BME280;2964;42.144;24.730;2023-02-16T04:52:33;141602.00;;;-0.15;99.38
5877;BME280;2964;42.144;24.730;2023-02-16T04:55:00;141603.28;;;-0.14;99.23
5877;BME280;2964;42.144;24.730;2023-02-16T04:57:29;141610.72;;;-0.11;99.38
5877;BME280;2964;42.144;24.730;2023-02-16T04:59:55;141587.06;;;-0.21;99.32
5877;BME280;2964;42.144;24.730;2023-02-16T05:02:22;141548.47;;;-0.37;100.00
5877;BME280;2964;42.144;24.730;2023-02-16T05:04:48;141569.66;;;-0.28;100.00
5877;BME280;2964;42.144;24.730;2023-02-16T05:07:15;141568.41;;;-0.29;100.00
5877;BME280;2964;42.144;24.730;2023-02-16T05:09:42;141590.81;;;-0.20;100.00
5877;BME280;2964;42.144;24.730;2023-02-16T05:12:09;141722.75;;;0.35;98.40
5877;BME280;2964;42.144;24.730;2023-02-16T05:14:54;141645.56;;;0.03;98.66
5877;BME280;2964;42.144;24.730;2023-02-16T05:17:23;141727.78;;;0.37;98.42
5877;BME280;2964;42.144;24.730;2023-02-16T05:19:51;141712.81;;;0.31;96.97
5877;BME280;2964;42.144;24.730;2023-02-16T05:22:19;141827.41;;;0.78;95.65
5877;BME280;2964;42.144;24.730;2023-02-16T05:24:45;141872.25;;;0.96;95.07
5877;BME280;2964;42.144;24.730;2023-02-16T05:27:14;141762.59;;;0.51;95.61
5877;BME280;2964;42.144;24.730;2023-02-16T05:29:42;141700.34;;;0.26;97.24
5877;BME280;2964;42.144;24.730;2023-02-16T05:32:10;141665.50;;;0.11;98.20
5877;BME280;2964;42.144;24.730;2023-02-16T05:34:37;141671.72;;;0.14;98.83
5877;BME280;2964;42.144;24.730;2023-02-16T05:37:04;141638.13;;;0.00;99.24
5877;BME280;2964;42.144;24.730;2023-02-16T05:39:30;141645.56;;;0.03;99.60
5877;BME280;2964;42.144;24.730;2023-02-16T05:41:57;141651.81;;;0.06;99.82
5877;BME280;2964;42.144;24.730;2023-02-16T05:44:24;141666.75;;;0.12;99.73
5877;BME280;2964;42.144;24.730;2023-02-16T05:46:51;141675.47;;;0.15;99.83
5877;BME280;2964;42.144;24.730;2023-02-16T05:49:19;141692.91;;;0.23;99.97
5877;BME280;2964;42.144;24.730;2023-02-16T05:51:45;141700.34;;;0.26;99.49
5877;BME280;2964;42.144;24.730;2023-02-16T05:54:12;141719.06;;;0.33;98.92
5877;BME280;2964;42.144;24.730;2023-02-16T05:56:43;141704.06;;;0.27;98.91
5877;BME280;2964;42.144;24.730;2023-02-16T05:59:10;141750.19;;;0.46;98.69
5877;BME280;2964;42.144;24.730;2023-02-16T06:01:37;141772.59;;;0.55;98.58
5877;BME280;2964;42.144;24.730;2023-02-16T06:04:06;141793.75;;;0.64;97.45
5877;BME280;2964;42.144;24.730;2023-02-16T06:06:35;141827.41;;;0.78;97.16
5877;BME280;2964;42.144;24.730;2023-02-16T06:09:02;141856.03;;;0.90;96.44
5877;BME280;2964;42.144;24.730;2023-02-16T06:11:29;141859.78;;;0.91;95.58
5877;BME280;2964;42.144;24.730;2023-02-16T06:14:03;141889.69;;;1.04;96.01
5877;BME280;2964;42.144;24.730;2023-02-16T06:16:31;141922.06;;;1.17;95.10
5877;BME280;2964;42.144;24.730;2023-02-16T06:18:59;142011.81;;;1.54;93.77
5877;BME280;2964;42.144;24.730;2023-02-16T06:21:26;141980.63;;;1.41;94.49
5877;BME280;2964;42.144;24.730;2023-02-16T06:23:54;141986.84;;;1.44;95.36
5877;BME280;2964;42.144;24.730;2023-02-16T06:26:21;142026.75;;;1.60;95.65
5877;BME280;2964;42.144;24.730;2023-02-16T06:28:48;142042.97;;;1.67;94.04
5877;BME280;2964;42.144;24.730;2023-02-16T06:31:14;142060.44;;;1.74;93.81
5877;BME280;2964;42.144;24.730;2023-02-16T06:33:41;142082.88;;;1.83;93.91
5877;BME280;2964;42.144;24.730;2023-02-16T06:36:08;142249.97;;;2.52;89.18
5877;BME280;2964;42.144;24.730;2023-02-16T06:38:35;142268.69;;;2.60;87.57
5877;BME280;2964;42.144;24.730;2023-02-16T06:41:04;142326.09;;;2.83;85.83
5877;BME280;2964;42.144;24.730;2023-02-16T06:43:31;142447.16;;;3.33;84.56
5877;BME280;2964;42.144;24.730;2023-02-16T06:45:58;142540.84;;;3.72;82.54
5877;BME280;2964;42.144;24.730;2023-02-16T06:48:25;142615.78;;;4.02;80.70
5877;BME280;2964;42.144;24.730;2023-02-16T06:50:52;142680.72;;;4.29;79.06
5877;BME280;2964;42.144;24.730;2023-02-16T06:53:19;142698.22;;;4.36;78.44
5877;BME280;2964;42.144;24.730;2023-02-16T06:55:46;142687.00;;;4.32;78.60
5877;BME280;2964;42.144;24.730;2023-02-16T06:58:14;142645.75;;;4.15;79.40
5877;BME280;2964;42.144;24.730;2023-02-16T07:00:41;142766.94;;;4.64;77.21
5877;BME280;2964;42.144;24.730;2023-02-16T07:03:08;142633.28;;;4.10;78.98
5877;BME280;2964;42.144;24.730;2023-02-16T07:05:34;142715.72;;;4.43;78.29
5877;BME280;2964;42.144;24.730;2023-02-16T07:08:01;142784.44;;;4.72;77.42
5877;BME280;2964;42.144;24.730;2023-02-16T07:10:28;142753.22;;;4.59;76.32
5877;BME280;2964;42.144;24.730;2023-02-16T07:12:54;142868.22;;;5.06;75.31
5877;BME280;2964;42.144;24.730;2023-02-16T07:15:22;142998.31;;;5.59;74.05
5877;BME280;2964;42.144;24.730;2023-02-16T07:17:49;143030.81;;;5.73;72.16
5877;BME280;2964;42.144;24.730;2023-02-16T07:20:16;143318.75;;;6.91;69.02
5877;BME280;2964;42.144;24.730;2023-02-16T07:22:42;143353.81;;;7.05;67.49
5877;BME280;2964;42.144;24.730;2023-02-16T07:25:09;143278.69;;;6.74;68.15
5877;BME280;2964;42.144;24.730;2023-02-16T07:27:36;143407.69;;;7.27;65.98
5877;BME280;2964;42.144;24.730;2023-02-16T07:30:02;143372.59;;;7.13;66.73
5877;BME280;2964;42.144;24.730;2023-02-16T07:32:31;143173.53;;;6.31;67.31
5877;BME280;2964;42.144;24.730;2023-02-16T07:34:57;143227.34;;;6.53;69.55
5877;BME280;2964;42.144;24.730;2023-02-16T07:37:24;143368.84;;;7.11;65.33
5877;BME280;2964;42.144;24.730;2023-02-16T07:39:51;143591.88;;;8.03;63.41
5877;BME280;2964;42.144;24.730;2023-02-16T07:42:18;143418.94;;;7.32;64.29
5877;BME280;2964;42.144;24.730;2023-02-16T07:44:45;143269.91;;;6.71;67.29
5877;BME280;2964;42.144;24.730;2023-02-16T07:47:11;143800.06;;;8.88;60.12
5877;BME280;2964;42.144;24.730;2023-02-16T07:49:40;143934.34;;;9.43;57.56
5877;BME280;2964;42.144;24.730;2023-02-16T07:52:07;143966.94;;;9.56;57.40
5877;BME280;2964;42.144;24.730;2023-02-16T07:54:33;143820.13;;;8.96;57.82
5877;BME280;2964;42.144;24.730;2023-02-16T07:57:00;143772.50;;;8.77;60.16
5877;BME280;2964;42.144;24.730;2023-02-16T07:59:27;143914.22;;;9.35;57.51
5877;BME280;2964;42.144;24.730;2023-02-16T08:01:53;143886.63;;;9.23;58.40
5877;BME280;2964;42.144;24.730;2023-02-16T08:04:20;143806.34;;;8.91;59.06
5877;BME280;2964;42.144;24.730;2023-02-16T08:06:48;143754.94;;;8.69;59.11
5877;BME280;2964;42.144;24.730;2023-02-16T08:09:15;143693.47;;;8.44;60.92
5877;BME280;2964;42.144;24.730;2023-02-16T08:11:42;143830.19;;;9.00;60.47
5877;BME280;2964;42.144;24.730;2023-02-16T08:14:09;143998.34;;;9.69;57.65
5877;BME280;2964;42.144;24.730;2023-02-16T08:16:36;144165.38;;;10.37;54.47
5877;BME280;2964;42.144;24.730;2023-02-16T08:19:03;144171.63;;;10.40;54.40
5877;BME280;2964;42.144;24.730;2023-02-16T08:21:31;143971.97;;;9.58;56.92
5877;BME280;2964;42.144;24.730;2023-02-16T08:24:01;144039.75;;;9.86;55.63
5877;BME280;2964;42.144;24.730;2023-02-16T08:26:33;144209.34;;;10.55;53.36
5877;BME280;2964;42.144;24.730;2023-02-16T08:29:01;144247.00;;;10.71;52.53
5877;BME280;2964;42.144;24.730;2023-02-16T08:31:30;144208.03;;;10.55;53.27
5877;BME280;2964;42.144;24.730;2023-02-16T08:34:00;144089.97;;;10.07;54.91
5877;BME280;2964;42.144;24.730;2023-02-16T08:36:28;143995.81;;;9.68;55.55
5877;BME280;2964;42.144;24.730;2023-02-16T08:38:57;144324.88;;;11.02;52.77
5877;BME280;2964;42.144;24.730;2023-02-16T08:41:29;144361.31;;;11.17;52.23
5877;BME280;2964;42.144;24.730;2023-02-16T08:43:56;144402.84;;;11.34;50.95
5877;BME280;2964;42.144;24.730;2023-02-16T08:46:25;144200.53;;;10.52;53.77
5877;BME280;2964;42.144;24.730;2023-02-16T08:48:53;144037.25;;;9.85;53.25
5877;BME280;2964;42.144;24.730;2023-02-16T08:51:21;144294.75;;;10.90;52.45
5877;BME280;2964;42.144;24.730;2023-02-16T08:53:47;144353.81;;;11.14;52.16
5877;BME280;2964;42.144;24.730;2023-02-16T08:56:14;144665.66;;;12.42;49.87
5877;BME280;2964;42.144;24.730;2023-02-16T08:58:42;144596.47;;;12.13;49.02
5877;BME280;2964;42.144;24.730;2023-02-16T09:01:10;144752.47;;;12.77;48.28
5877;BME280;2964;42.144;24.730;2023-02-16T09:03:38;144923.69;;;13.47;45.59
5877;BME280;2964;42.144;24.730;2023-02-16T09:06:07;145155.41;;;14.41;44.70
5877;BME280;2964;42.144;24.730;2023-02-16T09:08:35;145147.84;;;14.38;44.11
5877;BME280;2964;42.144;24.730;2023-02-16T09:11:03;145469.31;;;15.69;41.63
5877;BME280;2964;42.144;24.730;2023-02-16T09:13:32;145430.25;;;15.53;38.51
5877;BME280;2964;42.144;24.730;2023-02-16T09:16:03;146055.09;;;18.07;33.89
5877;BME280;2964;42.144;24.730;2023-02-16T09:18:33;145956.56;;;17.67;33.80
5877;BME280;2964;42.144;24.730;2023-02-16T09:21:02;145623.25;;;16.32;35.14
5877;BME280;2964;42.144;24.730;2023-02-16T09:23:31;146199.19;;;18.66;32.10
5877;BME280;2964;42.144;24.730;2023-02-16T09:26:00;146782.47;;;21.02;28.67
5877;BME280;2964;42.144;24.730;2023-02-16T09:28:27;146736.84;;;20.84;28.62
5877;BME280;2964;42.144;24.730;2023-02-16T09:30:55;146744.47;;;20.87;28.83
5877;BME280;2964;42.144;24.730;2023-02-16T09:33:23;146942.06;;;21.67;26.96
5877;BME280;2964;42.144;24.730;2023-02-16T09:35:50;147175.22;;;22.62;24.83
5877;BME280;2964;42.144;24.730;2023-02-16T09:38:17;146912.91;;;21.55;25.55
5877;BME280;2964;42.144;24.730;2023-02-16T09:40:45;147089.06;;;22.27;24.85
5877;BME280;2964;42.144;24.730;2023-02-16T09:43:19;147162.53;;;22.57;25.21
5877;BME280;2964;42.144;24.730;2023-02-16T09:45:50;146833.13;;;21.23;26.86
5877;BME280;2964;42.144;24.730;2023-02-16T09:48:26;146759.66;;;20.93;26.48
5877;BME280;2964;42.144;24.730;2023-02-16T09:50:59;146638.13;;;20.44;27.47
5877;BME280;2964;42.144;24.730;2023-02-16T09:53:31;146474.91;;;19.78;28.67
5877;BME280;2964;42.144;24.730;2023-02-16T09:56:07;146793.84;;;21.07;26.94
5877;BME280;2964;42.144;24.730;2023-02-16T09:58:44;146590.03;;;20.24;27.22
5877;BME280;2964;42.144;24.730;2023-02-16T10:01:18;146043.75;;;18.03;31.14
5877;BME280;2964;42.144;24.730;2023-02-16T10:04:00;146321.84;;;19.16;29.89
5877;BME280;2964;42.144;24.730;2023-02-16T10:06:40;147082.66;;;22.24;26.01
5877;BME280;2964;42.144;24.730;2023-02-16T10:09:10;146445.75;;;19.66;27.77
5877;BME280;2964;42.144;24.730;2023-02-16T10:11:40;146838.19;;;21.25;26.88
5877;BME280;2964;42.144;24.730;2023-02-16T10:14:17;147247.47;;;22.91;25.42
5877;BME280;2964;42.144;24.730;2023-02-16T10:16:51;147134.66;;;22.45;25.45
5877;BME280;2964;42.144;24.730;2023-02-16T10:19:24;146772.31;;;20.98;26.57
5877;BME280;2964;42.144;24.730;2023-02-16T10:21:55;146385.06;;;19.41;28.86
5877;BME280;2964;42.144;24.730;2023-02-16T10:24:25;145788.66;;;16.99;33.07
5877;BME280;2964;42.144;24.730;2023-02-16T10:26:57;145241.16;;;14.76;37.34
5877;BME280;2964;42.144;24.730;2023-02-16T10:29:27;145120.13;;;14.27;38.54
5877;BME280;2964;42.144;24.730;2023-02-16T10:32:01;145013.09;;;13.83;38.10
5877;BME280;2964;42.144;24.730;2023-02-16T10:34:46;144693.34;;;12.53;41.28
5877;BME280;2964;42.144;24.730;2023-02-16T10:37:22;144651.84;;;12.36;41.89
5877;BME280;2964;42.144;24.730;2023-02-16T10:39:57;144616.63;;;12.22;42.54
5877;BME280;2964;42.144;24.730;2023-02-16T10:42:33;144663.13;;;12.41;41.63
5877;BME280;2964;42.144;24.730;2023-02-16T10:45:10;144563.78;;;12.00;42.13
5877;BME280;2964;42.144;24.730;2023-02-16T10:47:44;144456.88;;;11.56;43.41
5877;BME280;2964;42.144;24.730;2023-02-16T10:50:19;144485.78;;;11.68;43.65
5877;BME280;2964;42.144;24.730;2023-02-16T10:52:47;144449.34;;;11.53;44.17
5877;BME280;2964;42.144;24.730;2023-02-16T10:55:15;144425.47;;;11.44;42.79
5877;BME280;2964;42.144;24.730;2023-02-16T10:57:42;144375.16;;;11.23;44.39
5877;BME280;2964;42.144;24.730;2023-02-16T11:00:12;144427.94;;;11.45;43.52
5877;BME280;2964;42.144;24.730;2023-02-16T11:02:44;144285.97;;;10.87;44.61
5877;BME280;2964;42.144;24.730;2023-02-16T11:05:30;144274.63;;;10.82;45.67
5877;BME280;2964;42.144;24.730;2023-02-16T11:07:58;144292.22;;;10.89;45.04
5877;BME280;2964;42.144;24.730;2023-02-16T11:10:38;144247.00;;;10.71;45.50
5877;BME280;2964;42.144;24.730;2023-02-16T11:13:06;144285.97;;;10.87;45.53
5877;BME280;2964;42.144;24.730;2023-02-16T11:15:35;144199.31;;;10.51;45.57
5877;BME280;2964;42.144;24.730;2023-02-16T11:18:05;144311.06;;;10.97;44.86
5877;BME280;2964;42.144;24.730;2023-02-16T11:20:52;144331.19;;;11.05;44.68
5877;BME280;2964;42.144;24.730;2023-02-16T11:23:22;144311.06;;;10.97;44.86
5877;BME280;2964;42.144;24.730;2023-02-16T11:25:58;144312.34;;;10.97;44.92
5877;BME280;2964;42.144;24.730;2023-02-16T11:28:26;144262.06;;;10.77;45.09
5877;BME280;2964;42.144;24.730;2023-02-16T11:33:43;144308.59;;;10.96;44.51
5877;BME280;2964;42.144;24.730;2023-02-16T11:36:27;144353.81;;;11.14;44.18
5877;BME280;2964;42.144;24.730;2023-02-16T11:38:58;144404.09;;;11.35;44.13
5877;BME280;2964;42.144;24.730;2023-02-16T11:41:26;144400.31;;;11.33;43.77
5877;BME280;2964;42.144;24.730;2023-02-16T11:43:54;144299.78;;;10.92;43.96
5877;BME280;2964;42.144;24.730;2023-02-16T11:46:22;144342.50;;;11.10;43.60
5877;BME280;2964;42.144;24.730;2023-02-16T11:48:49;144370.13;;;11.21;43.20
5877;BME280;2964;42.144;24.730;2023-02-16T11:51:32;144337.47;;;11.08;43.93
5877;BME280;2964;42.144;24.730;2023-02-16T11:54:00;144328.66;;;11.04;44.05
5877;BME280;2964;42.144;24.730;2023-02-16T11:56:34;144340.00;;;11.09;44.84
5877;BME280;2964;42.144;24.730;2023-02-16T11:59:04;144399.06;;;11.33;43.85
5877;BME280;2964;42.144;24.730;2023-02-16T12:01:43;144356.31;;;11.15;43.75
5877;BME280;2964;42.144;24.730;2023-02-16T12:04:23;144380.22;;;11.25;43.58
5877;BME280;2964;42.144;24.730;2023-02-16T12:07:03;144400.31;;;11.33;43.38
5877;BME280;2964;42.144;24.730;2023-02-16T12:09:44;144390.25;;;11.29;43.25
5877;BME280;2964;42.144;24.730;2023-02-16T12:12:17;144444.31;;;11.51;42.66
5877;BME280;2964;42.144;24.730;2023-02-16T12:14:54;144456.88;;;11.56;42.64
5877;BME280;2964;42.144;24.730;2023-02-16T12:17:36;144405.31;;;11.35;42.97
5877;BME280;2964;42.144;24.730;2023-02-16T12:20:18;144389.00;;;11.29;43.15
5877;BME280;2964;42.144;24.730;2023-02-16T12:22:57;144432.97;;;11.47;42.63
5877;BME280;2964;42.144;24.730;2023-02-16T12:25:30;144427.94;;;11.45;42.69
5877;BME280;2964;42.144;24.730;2023-02-16T12:28:06;144492.06;;;11.71;42.31
5877;BME280;2964;42.144;24.730;2023-02-16T12:30:47;144448.09;;;11.53;42.19
5877;BME280;2964;42.144;24.730;2023-02-16T12:33:35;144420.41;;;11.42;42.33
5877;BME280;2964;42.144;24.730;2023-02-16T12:36:17;144469.41;;;11.62;41.60
5877;BME280;2964;42.144;24.730;2023-02-16T12:38:58;144371.41;;;11.22;42.66
5877;BME280;2964;42.144;24.730;2023-02-16T12:41:38;144416.66;;;11.40;42.36
5877;BME280;2964;42.144;24.730;2023-02-16T12:44:12;144473.19;;;11.63;42.04
5877;BME280;2964;42.144;24.730;2023-02-16T12:46:42;144463.16;;;11.59;42.31
5877;BME280;2964;42.144;24.730;2023-02-16T12:49:14;144529.81;;;11.86;41.59
5877;BME280;2964;42.144;24.730;2023-02-16T12:51:46;144542.38;;;11.91;41.30
5877;BME280;2964;42.144;24.730;2023-02-16T12:54:19;144492.06;;;11.71;41.52
5877;BME280;2964;42.144;24.730;2023-02-16T12:56:53;144498.38;;;11.73;41.59
5877;BME280;2964;42.144;24.730;2023-02-16T12:59:23;144541.13;;;11.91;41.16
5877;BME280;2964;42.144;24.730;2023-02-16T13:01:53;144568.81;;;12.02;41.02
5877;BME280;2964;42.144;24.730;2023-02-16T13:04:25;144551.19;;;11.95;41.12
5877;BME280;2964;42.144;24.730;2023-02-16T13:07:00;144521.00;;;11.83;41.14
5877;BME280;2964;42.144;24.730;2023-02-16T13:09:36;144549.94;;;11.94;41.10
5877;BME280;2964;42.144;24.730;2023-02-16T13:12:09;144503.38;;;11.75;41.46
5877;BME280;2964;42.144;24.730;2023-02-16T13:14:43;144484.53;;;11.68;41.28
5877;BME280;2964;42.144;24.730;2023-02-16T13:17:16;144435.50;;;11.48;41.60
5877;BME280;2964;42.144;24.730;2023-02-16T13:19:45;144427.94;;;11.45;41.56
5877;BME280;2964;42.144;24.730;2023-02-16T13:22:21;144429.19;;;11.45;41.53
5877;BME280;2964;42.144;24.730;2023-02-16T13:25:06;144549.94;;;11.94;41.16
5877;BME280;2964;42.144;24.730;2023-02-16T13:27:48;144498.38;;;11.73;41.26